createdAt,value
2018-02-17T00:00:42.642Z,3.10
2018-02-17T00:03:10.207Z,3.10
2018-02-17T00:05:38.584Z,3.10
2018-02-17T00:08:06.142Z,3.10
2018-02-17T00:10:33.742Z,3.10
2018-02-17T00:13:01.338Z,3.10
2018-02-17T00:15:28.899Z,3.10
2018-02-17T00:17:56.465Z,3.10
2018-02-17T00:20:24.122Z,3.10
2018-02-17T00:22:51.668Z,3.00
2018-02-17T00:25:19.252Z,3.00
2018-02-17T00:27:46.890Z,3.00
2018-02-17T00:30:14.473Z,3.00
2018-02-17T00:32:42.048Z,3.00
2018-02-17T00:35:09.678Z,3.00
2018-02-17T00:37:37.358Z,3.00
2018-02-17T00:40:04.925Z,2.90
2018-02-17T00:42:32.524Z,4.20
2018-02-17T00:45:00.123Z,2.70
2018-02-17T00:47:28.497Z,2.60
2018-02-17T00:49:56.857Z,2.60
2018-02-17T00:52:24.409Z,2.60
2018-02-17T00:54:51.999Z,2.60
2018-02-17T00:57:20.395Z,2.50
2018-02-17T00:59:47.986Z,2.50
2018-02-17T01:02:15.704Z,2.50
2018-02-17T01:04:44.062Z,2.50
2018-02-17T01:07:11.662Z,2.50
2018-02-17T01:09:39.234Z,2.40
2018-02-17T01:12:06.851Z,2.30
2018-02-17T01:14:34.407Z,2.30
2018-02-17T01:17:01.976Z,2.30
2018-02-17T01:19:29.588Z,2.30
2018-02-17T01:21:57.144Z,2.20
2018-02-17T01:24:24.758Z,2.10
2018-02-17T01:26:52.318Z,2.10
2018-02-17T01:29:19.892Z,2.00
2018-02-17T01:31:47.485Z,1.90
2018-02-17T01:34:15.040Z,1.80
2018-02-17T01:36:43.403Z,1.70
2018-02-17T01:39:11.774Z,1.70
2018-02-17T01:41:39.331Z,1.70
2018-02-17T01:44:06.930Z,1.70
2018-02-17T01:46:34.488Z,1.50
2018-02-17T01:49:02.871Z,1.50
2018-02-17T01:51:30.444Z,1.50
2018-02-17T01:53:58.049Z,1.60
2018-02-17T01:56:25.628Z,1.50
2018-02-17T01:58:53.971Z,1.70
2018-02-17T02:01:21.568Z,1.60
2018-02-17T02:03:49.125Z,1.50
2018-02-17T02:06:16.719Z,1.60
2018-02-17T02:08:44.308Z,1.60
2018-02-17T02:11:11.896Z,1.60
2018-02-17T02:13:42.567Z,1.60
2018-02-17T02:16:13.168Z,1.50
2018-02-17T02:18:43.710Z,1.50
2018-02-17T02:21:13.562Z,1.50
2018-02-17T02:23:44.021Z,1.60
2018-02-17T02:26:13.847Z,1.60
2018-02-17T02:28:43.697Z,1.60
2018-02-17T02:31:14.159Z,1.50
2018-02-17T02:33:44.426Z,1.50
2018-02-17T02:36:15.492Z,1.60
2018-02-17T02:38:46.068Z,1.60
2018-02-17T02:41:15.420Z,1.60
2018-02-17T02:43:46.026Z,1.70
2018-02-17T02:46:15.828Z,1.70
2018-02-17T02:48:45.196Z,1.80
2018-02-17T02:51:15.963Z,1.90
2018-02-17T02:53:45.674Z,2.00
2018-02-17T02:56:15.561Z,2.10
2018-02-17T02:58:45.504Z,2.00
2018-02-17T03:01:16.097Z,2.10
2018-02-17T03:03:45.974Z,2.10
2018-02-17T03:06:16.566Z,2.20
2018-02-17T03:08:45.951Z,2.20
2018-02-17T03:11:15.786Z,2.20
2018-02-17T03:13:45.167Z,2.20
2018-02-17T03:16:14.594Z,2.20
2018-02-17T03:18:44.785Z,2.20
2018-02-17T03:21:15.002Z,2.20
2018-02-17T03:23:45.251Z,2.20
2018-02-17T03:26:14.842Z,2.20
2018-02-17T03:28:44.623Z,2.30
2018-02-17T03:31:14.118Z,2.30
2018-02-17T03:33:43.616Z,2.30
2018-02-17T03:36:11.208Z,2.30
2018-02-17T03:38:38.791Z,2.30
2018-02-17T03:41:07.183Z,2.10
2018-02-17T03:43:34.766Z,2.10
2018-02-17T03:46:03.085Z,2.00
2018-02-17T03:48:30.676Z,2.00
2018-02-17T03:50:58.225Z,2.10
2018-02-17T03:53:26.590Z,2.20
2018-02-17T03:55:54.168Z,2.20
2018-02-17T03:58:22.517Z,2.30
2018-02-17T04:00:50.109Z,2.30
2018-02-17T04:03:18.447Z,2.40
2018-02-17T04:05:46.058Z,2.40
2018-02-17T04:08:13.628Z,2.50
2018-02-17T04:10:41.227Z,2.40
2018-02-17T04:13:08.780Z,2.40
2018-02-17T04:15:36.332Z,2.40
2018-02-17T04:18:03.929Z,2.40
2018-02-17T04:20:31.488Z,2.30
2018-02-17T04:22:59.093Z,2.40
2018-02-17T04:25:26.656Z,2.40
2018-02-17T04:27:54.253Z,2.30
2018-02-17T04:30:21.864Z,2.40
2018-02-17T04:32:49.452Z,2.40
2018-02-17T04:35:17.018Z,2.50
2018-02-17T04:37:44.636Z,2.50
2018-02-17T04:40:19.630Z,2.60
2018-02-17T04:43:08.068Z,2.50
2018-02-17T04:45:36.438Z,2.60
2018-02-17T04:48:05.468Z,2.60
2018-02-17T04:50:33.580Z,2.60
2018-02-17T04:53:16.032Z,2.60
2018-02-17T04:56:02.401Z,2.60
2018-02-17T04:58:31.312Z,2.60
2018-02-17T05:01:18.788Z,2.60
2018-02-17T05:03:47.937Z,2.60
2018-02-17T05:06:30.405Z,2.60
2018-02-17T05:08:58.756Z,2.70
2018-02-17T05:11:26.344Z,2.70
2018-02-17T05:14:10.501Z,2.70
2018-02-17T05:16:47.967Z,2.80
2018-02-17T05:19:30.100Z,2.70
2018-02-17T05:21:58.132Z,2.70
2018-02-17T05:24:36.439Z,2.70
2018-02-17T05:27:21.705Z,2.70
2018-02-17T05:30:04.144Z,2.70
2018-02-17T05:32:51.212Z,2.80
2018-02-17T05:35:21.634Z,2.80
2018-02-17T05:37:49.193Z,2.90
2018-02-17T05:40:17.310Z,2.90
2018-02-17T05:42:44.860Z,3.00
2018-02-17T05:45:12.444Z,2.90
2018-02-17T05:47:41.377Z,2.80
2018-02-17T05:50:09.510Z,2.80
2018-02-17T05:52:37.915Z,2.80
2018-02-17T05:55:05.467Z,2.90
2018-02-17T05:57:33.050Z,2.90
2018-02-17T06:00:00.640Z,2.90
2018-02-17T06:02:28.228Z,2.90
2018-02-17T06:04:56.610Z,2.90
2018-02-17T06:07:24.976Z,2.80
2018-02-17T06:09:52.560Z,2.80
2018-02-17T06:12:20.920Z,2.90
2018-02-17T06:14:48.526Z,2.90
2018-02-17T06:17:16.091Z,3.00
2018-02-17T06:19:43.681Z,3.00
2018-02-17T06:22:11.243Z,3.10
2018-02-17T06:24:38.828Z,3.10
2018-02-17T06:27:06.424Z,3.10
2018-02-17T06:29:34.004Z,3.10
2018-02-17T06:32:01.598Z,3.00
2018-02-17T06:34:29.151Z,3.00
2018-02-17T06:36:56.750Z,3.10
2018-02-17T06:39:24.328Z,3.10
2018-02-17T06:41:51.944Z,3.20
2018-02-17T06:44:19.504Z,3.10
2018-02-17T06:46:47.072Z,3.10
2018-02-17T06:49:15.439Z,3.10
2018-02-17T06:51:43.073Z,3.10
2018-02-17T06:54:11.388Z,3.20
2018-02-17T06:56:38.985Z,3.20
2018-02-17T06:59:06.583Z,3.10
2018-02-17T07:01:34.135Z,3.00
2018-02-17T07:04:01.724Z,3.00
2018-02-17T07:06:29.288Z,3.00
2018-02-17T07:08:56.906Z,3.10
2018-02-17T07:11:24.488Z,3.20
2018-02-17T07:13:52.033Z,3.20
2018-02-17T07:16:19.653Z,3.20
2018-02-17T07:18:47.223Z,3.20
2018-02-17T07:21:14.849Z,3.10
2018-02-17T07:23:42.450Z,3.10
2018-02-17T07:26:10.065Z,3.10
2018-02-17T07:28:37.660Z,3.00
2018-02-17T07:31:05.228Z,3.10
2018-02-17T07:33:33.572Z,3.20
2018-02-17T07:36:01.176Z,3.30
2018-02-17T07:38:28.848Z,3.30
2018-02-17T07:40:56.439Z,3.40
2018-02-17T07:43:24.003Z,3.40
2018-02-17T07:45:51.623Z,3.30
2018-02-17T07:48:19.176Z,3.30
2018-02-17T07:50:47.531Z,3.30
2018-02-17T07:53:15.136Z,3.30
2018-02-17T07:55:42.713Z,3.30
2018-02-17T07:58:10.296Z,3.30
2018-02-17T08:00:37.860Z,3.30
2018-02-17T08:03:05.464Z,3.40
2018-02-17T08:05:33.781Z,3.50
2018-02-17T08:08:01.380Z,3.50
2018-02-17T08:10:28.963Z,3.50
2018-02-17T08:12:57.338Z,3.60
2018-02-17T08:15:25.713Z,3.60
2018-02-17T08:17:53.281Z,3.60
2018-02-17T08:20:20.866Z,3.60
2018-02-17T08:22:48.463Z,3.60
2018-02-17T08:25:16.020Z,3.60
2018-02-17T08:27:43.624Z,3.60
2018-02-17T08:30:11.989Z,3.60
2018-02-17T08:32:39.544Z,3.60
2018-02-17T08:35:07.096Z,3.50
2018-02-17T08:37:34.713Z,3.40
2018-02-17T08:40:02.328Z,3.40
2018-02-17T08:42:30.769Z,3.40
2018-02-17T08:44:58.392Z,3.40
2018-02-17T08:47:26.801Z,3.40
2018-02-17T08:49:54.355Z,3.40
2018-02-17T08:52:22.712Z,3.40
2018-02-17T08:54:50.319Z,3.40
2018-02-17T08:57:17.880Z,3.40
2018-02-17T08:59:45.496Z,3.40
2018-02-17T09:02:13.823Z,3.40
2018-02-17T09:04:41.406Z,3.40
2018-02-17T09:07:09.003Z,3.30
2018-02-17T09:09:37.395Z,3.30
2018-02-17T09:12:04.998Z,3.30
2018-02-17T09:14:32.577Z,3.20
2018-02-17T09:17:00.202Z,3.20
2018-02-17T09:19:27.780Z,3.10
2018-02-17T09:21:55.342Z,3.20
2018-02-17T09:24:22.941Z,3.20
2018-02-17T09:26:56.040Z,3.10
2018-02-17T09:29:23.589Z,3.10
2018-02-17T09:31:51.177Z,3.20
2018-02-17T09:34:18.788Z,3.30
2018-02-17T09:36:46.340Z,3.40
2018-02-17T09:39:13.939Z,3.30
2018-02-17T09:41:42.327Z,3.30
2018-02-17T09:44:10.655Z,3.40
2018-02-17T09:46:38.268Z,3.40
2018-02-17T09:49:05.829Z,3.50
2018-02-17T09:51:33.424Z,3.50
2018-02-17T09:54:00.979Z,3.50
2018-02-17T09:56:28.568Z,3.50
2018-02-17T09:58:56.181Z,3.60
2018-02-17T10:01:23.734Z,3.40
2018-02-17T10:03:52.056Z,3.50
2018-02-17T10:06:19.680Z,3.50
2018-02-17T10:08:47.241Z,3.40
2018-02-17T10:11:14.801Z,3.30
2018-02-17T10:13:42.401Z,3.40
2018-02-17T10:16:09.992Z,3.30
2018-02-17T10:18:38.363Z,3.50
2018-02-17T10:21:05.930Z,3.50
2018-02-17T10:23:34.300Z,3.50
2018-02-17T10:26:01.924Z,3.50
2018-02-17T10:28:29.476Z,3.60
2018-02-17T10:30:59.106Z,3.60
2018-02-17T10:33:26.662Z,3.70
2018-02-17T10:35:54.221Z,3.70
2018-02-17T10:38:21.816Z,3.70
2018-02-17T10:40:49.372Z,3.60
2018-02-17T10:43:16.976Z,3.60
2018-02-17T10:45:44.624Z,3.60
2018-02-17T10:48:12.994Z,3.50
2018-02-17T10:50:41.335Z,3.60
2018-02-17T10:53:08.920Z,3.50
2018-02-17T10:55:38.291Z,3.50
2018-02-17T10:58:05.919Z,3.60
2018-02-17T11:00:33.489Z,3.50
2018-02-17T11:03:01.111Z,3.50
2018-02-17T11:05:28.706Z,3.50
2018-02-17T11:07:56.313Z,3.50
2018-02-17T11:10:23.865Z,3.50
2018-02-17T11:12:51.427Z,3.50
2018-02-17T11:15:19.053Z,3.50
2018-02-17T11:17:46.684Z,3.50
2018-02-17T11:20:14.293Z,3.50
2018-02-17T11:22:41.857Z,3.50
2018-02-17T11:25:11.097Z,3.40
2018-02-17T11:27:38.664Z,3.40
2018-02-17T11:30:06.284Z,3.30
2018-02-17T11:32:33.828Z,3.30
2018-02-17T11:35:01.437Z,3.20
2018-02-17T11:37:29.013Z,3.20
2018-02-17T11:39:56.580Z,3.20
2018-02-17T11:42:24.940Z,3.10
2018-02-17T11:44:52.527Z,3.10
2018-02-17T11:47:20.888Z,3.00
2018-02-17T11:49:48.432Z,3.00
2018-02-17T11:52:16.020Z,3.00
2018-02-17T11:54:44.358Z,2.90
2018-02-17T11:57:11.970Z,2.90
2018-02-17T11:59:40.291Z,2.80
2018-02-17T12:02:07.853Z,2.80
2018-02-17T12:04:35.453Z,2.80
2018-02-17T12:07:03.052Z,2.70
2018-02-17T12:09:30.609Z,2.70
2018-02-17T12:11:58.216Z,2.70
2018-02-17T12:14:25.784Z,2.60
2018-02-17T12:16:53.461Z,2.60
2018-02-17T12:19:20.997Z,2.40
2018-02-17T12:21:48.612Z,2.50
2018-02-17T12:24:16.227Z,2.50
2018-02-17T12:26:44.640Z,2.60
2018-02-17T12:29:12.548Z,2.60
2018-02-17T12:31:40.102Z,2.60
2018-02-17T12:34:07.694Z,2.60
2018-02-17T12:36:35.425Z,2.70
2018-02-17T12:39:03.049Z,2.70
2018-02-17T12:41:31.448Z,2.70
2018-02-17T12:43:59.245Z,2.70
2018-02-17T12:46:26.832Z,2.70
2018-02-17T12:48:54.514Z,2.70
2018-02-17T12:51:22.213Z,2.70
2018-02-17T12:53:49.905Z,2.80
2018-02-17T12:56:17.492Z,2.80
2018-02-17T12:58:45.106Z,2.80
2018-02-17T13:01:12.703Z,2.80
2018-02-17T13:03:40.401Z,2.80
2018-02-17T13:06:08.793Z,2.80
2018-02-17T13:08:37.108Z,2.90
2018-02-17T13:11:04.714Z,2.80
2018-02-17T13:13:32.523Z,2.80
2018-02-17T13:16:00.128Z,2.80
2018-02-17T13:18:27.700Z,2.70
2018-02-17T13:20:56.129Z,2.80
2018-02-17T13:23:23.696Z,2.80
2018-02-17T13:25:51.244Z,2.80
2018-02-17T13:28:25.945Z,2.80
2018-02-17T13:30:54.349Z,2.80
2018-02-17T13:33:22.179Z,2.80
2018-02-17T13:35:50.565Z,2.90
2018-02-17T13:38:18.173Z,2.80
2018-02-17T13:40:45.804Z,2.90
2018-02-17T13:43:13.429Z,2.90
2018-02-17T13:45:41.079Z,2.90
2018-02-17T13:48:08.992Z,2.90
2018-02-17T13:50:37.389Z,2.90
2018-02-17T13:53:05.012Z,2.80
2018-02-17T13:55:32.593Z,2.90
2018-02-17T13:58:00.208Z,2.80
2018-02-17T14:00:27.953Z,2.90
2018-02-17T14:02:55.571Z,2.90
2018-02-17T14:05:23.167Z,2.90
2018-02-17T14:07:50.979Z,2.90
2018-02-17T14:10:18.650Z,2.90
2018-02-17T14:12:47.155Z,2.90
2018-02-17T14:15:15.606Z,3.00
2018-02-17T14:17:43.373Z,2.90
2018-02-17T14:20:11.808Z,3.00
2018-02-17T14:22:39.401Z,3.00
2018-02-17T14:25:07.044Z,2.90
2018-02-17T14:27:34.616Z,2.90
2018-02-17T14:30:02.184Z,2.90
2018-02-17T14:32:29.816Z,2.90
2018-02-17T14:34:57.399Z,2.90
2018-02-17T14:37:25.028Z,2.90
2018-02-17T14:39:52.763Z,2.80
2018-02-17T14:42:20.522Z,2.80
2018-02-17T14:44:48.115Z,2.90
2018-02-17T14:47:15.666Z,2.90
2018-02-17T14:49:44.029Z,3.00
2018-02-17T14:52:11.593Z,3.00
2018-02-17T14:54:39.921Z,3.00
2018-02-17T14:57:07.517Z,3.00
2018-02-17T14:59:35.078Z,2.70
2018-02-17T15:02:02.708Z,2.70
2018-02-17T15:04:30.272Z,2.70
2018-02-17T15:06:57.831Z,2.80
2018-02-17T15:09:25.457Z,2.80
2018-02-17T15:11:53.029Z,2.80
2018-02-17T15:14:20.621Z,2.90
2018-02-17T15:16:48.175Z,2.90
2018-02-17T15:19:15.765Z,2.90
2018-02-17T15:21:43.324Z,2.90
2018-02-17T15:24:10.934Z,2.90
2018-02-17T15:26:38.510Z,2.80
2018-02-17T15:29:06.076Z,2.80
2018-02-17T15:31:33.663Z,2.80
2018-02-17T15:34:01.260Z,2.80
2018-02-17T15:36:29.608Z,2.80
2018-02-17T15:38:57.161Z,2.80
2018-02-17T15:41:24.754Z,2.80
2018-02-17T15:43:53.072Z,2.70
2018-02-17T15:46:20.713Z,2.70
2018-02-17T15:48:48.321Z,2.70
2018-02-17T15:51:15.948Z,2.70
2018-02-17T15:53:43.505Z,2.70
2018-02-17T15:56:20.140Z,2.70
2018-02-17T15:58:47.738Z,2.70
2018-02-17T16:01:15.288Z,2.70
2018-02-17T16:03:42.853Z,2.70
2018-02-17T16:06:10.460Z,2.70
2018-02-17T16:08:38.025Z,2.70
2018-02-17T16:11:05.659Z,2.70
2018-02-17T16:13:33.252Z,2.60
2018-02-17T16:16:00.845Z,2.60
2018-02-17T16:18:29.198Z,2.60
2018-02-17T16:20:56.831Z,2.60
2018-02-17T16:23:24.411Z,2.60
2018-02-17T16:25:52.036Z,2.60
2018-02-17T16:28:19.587Z,2.60
2018-02-17T16:30:52.293Z,2.60
2018-02-17T16:33:19.873Z,2.70
2018-02-17T16:35:47.476Z,2.70
2018-02-17T16:38:15.858Z,2.60
2018-02-17T16:40:43.516Z,2.60
2018-02-17T16:43:11.166Z,2.60
2018-02-17T16:45:38.730Z,2.60
2018-02-17T16:48:07.100Z,2.50
2018-02-17T16:50:34.653Z,2.50
2018-02-17T16:53:02.269Z,2.40
2018-02-17T16:55:29.862Z,2.40
2018-02-17T16:57:57.453Z,2.50
2018-02-17T17:00:25.832Z,2.40
2018-02-17T17:02:54.210Z,2.40
2018-02-17T17:05:21.806Z,2.40
2018-02-17T17:07:49.368Z,2.50
2018-02-17T17:10:16.964Z,2.50
2018-02-17T17:12:44.606Z,2.50
2018-02-17T17:15:12.167Z,2.40
2018-02-17T17:17:39.795Z,2.50
2018-02-17T17:20:08.122Z,2.50
2018-02-17T17:22:35.742Z,2.50
2018-02-17T17:25:03.322Z,2.50
2018-02-17T17:27:30.941Z,2.50
2018-02-17T17:29:58.545Z,2.50
2018-02-17T17:32:26.156Z,2.50
2018-02-17T17:34:53.762Z,2.50
2018-02-17T17:37:21.343Z,2.50
2018-02-17T17:39:48.950Z,2.50
2018-02-17T17:42:16.545Z,2.50
2018-02-17T17:44:44.096Z,2.50
2018-02-17T17:47:12.464Z,2.50
2018-02-17T17:49:40.798Z,2.40
2018-02-17T17:52:08.387Z,2.40
2018-02-17T17:54:36.046Z,2.40
2018-02-17T17:57:05.350Z,2.50
2018-02-17T17:59:32.946Z,2.50
2018-02-17T18:02:00.554Z,2.40
2018-02-17T18:04:28.146Z,2.50
2018-02-17T18:06:56.524Z,2.50
2018-02-17T18:09:24.862Z,2.50
2018-02-17T18:11:52.526Z,2.50
2018-02-17T18:14:20.081Z,2.60
2018-02-17T18:16:47.678Z,2.60
2018-02-17T18:19:15.232Z,2.60
2018-02-17T18:21:43.926Z,2.60
2018-02-17T18:24:11.529Z,2.60
2018-02-17T18:26:39.147Z,2.60
2018-02-17T18:29:06.734Z,2.50
2018-02-17T18:31:35.109Z,2.50
2018-02-17T18:34:02.723Z,2.50
2018-02-17T18:36:30.305Z,2.50
2018-02-17T18:38:57.935Z,2.50
2018-02-17T18:41:25.502Z,2.50
2018-02-17T18:43:53.247Z,2.50
2018-02-17T18:46:20.793Z,2.50
2018-02-17T18:48:48.398Z,2.50
2018-02-17T18:51:16.003Z,2.50
2018-02-17T18:53:44.358Z,2.50
2018-02-17T18:56:11.924Z,2.50
2018-02-17T18:58:39.545Z,2.50
2018-02-17T19:01:08.012Z,2.50
2018-02-17T19:03:35.608Z,2.40
2018-02-17T19:06:03.185Z,2.40
2018-02-17T19:08:31.561Z,2.40
2018-02-17T19:10:59.158Z,2.40
2018-02-17T19:13:26.721Z,2.50
2018-02-17T19:15:55.077Z,2.50
2018-02-17T19:18:22.627Z,2.50
2018-02-17T19:20:50.204Z,2.50
2018-02-17T19:23:18.590Z,2.50
2018-02-17T19:25:47.045Z,2.50
2018-02-17T19:28:14.680Z,2.40
2018-02-17T19:30:42.201Z,2.50
2018-02-17T19:33:10.577Z,2.50
2018-02-17T19:35:38.905Z,2.60
2018-02-17T19:38:06.502Z,2.50
2018-02-17T19:40:34.834Z,2.60
2018-02-17T19:43:02.404Z,2.50
2018-02-17T19:45:29.998Z,2.60
2018-02-17T19:47:58.349Z,2.50
2018-02-17T19:50:25.958Z,2.50
2018-02-17T19:52:53.514Z,2.50
2018-02-17T19:55:21.902Z,2.50
2018-02-17T19:57:50.283Z,2.40
2018-02-17T20:00:17.876Z,2.40
2018-02-17T20:02:45.490Z,2.40
2018-02-17T20:05:13.101Z,2.50
2018-02-17T20:07:40.694Z,2.50
2018-02-17T20:10:08.329Z,2.50
2018-02-17T20:12:37.738Z,2.50
2018-02-17T20:15:05.363Z,2.60
2018-02-17T20:17:32.938Z,2.50
2018-02-17T20:20:00.587Z,2.50
2018-02-17T20:22:28.146Z,2.50
2018-02-17T20:24:55.739Z,2.50
2018-02-17T20:27:23.308Z,2.50
2018-02-17T20:29:50.908Z,2.50
2018-02-17T20:32:19.247Z,2.50
2018-02-17T20:34:46.857Z,2.50
2018-02-17T20:37:15.197Z,2.40
2018-02-17T20:39:42.785Z,2.40
2018-02-17T20:42:10.385Z,2.30
2018-02-17T20:44:37.978Z,2.40
2018-02-17T20:47:05.582Z,2.40
2018-02-17T20:49:33.937Z,2.30
2018-02-17T20:52:01.494Z,2.30
2018-02-17T20:54:29.110Z,2.30
2018-02-17T20:56:56.700Z,2.20
2018-02-17T20:59:24.326Z,2.20
2018-02-17T21:01:53.762Z,2.30
2018-02-17T21:04:21.362Z,2.30
2018-02-17T21:06:49.735Z,2.40
2018-02-17T21:09:17.310Z,2.40
2018-02-17T21:11:45.701Z,2.50
2018-02-17T21:14:14.094Z,2.50
2018-02-17T21:16:41.657Z,2.50
2018-02-17T21:19:09.279Z,2.50
2018-02-17T21:21:37.614Z,2.40
2018-02-17T21:24:05.177Z,2.50
2018-02-17T21:26:32.786Z,2.50
2018-02-17T21:29:01.250Z,2.50
2018-02-17T21:31:28.815Z,2.40
2018-02-17T21:33:56.378Z,2.40
2018-02-17T21:36:23.990Z,2.40
2018-02-17T21:38:51.540Z,2.40
2018-02-17T21:41:19.145Z,2.40
2018-02-17T21:43:46.727Z,2.30
2018-02-17T21:46:15.096Z,2.20
2018-02-17T21:48:42.712Z,2.20
2018-02-17T21:51:10.287Z,2.30
2018-02-17T21:53:37.918Z,2.30
2018-02-17T21:56:06.237Z,2.30
2018-02-17T21:58:33.791Z,2.30
2018-02-17T22:01:01.378Z,2.30
2018-02-17T22:03:28.957Z,2.30
2018-02-17T22:05:57.338Z,2.30
2018-02-17T22:08:24.926Z,2.30
2018-02-17T22:10:52.558Z,2.30
2018-02-17T22:13:20.180Z,2.30
2018-02-17T22:15:47.770Z,2.20
2018-02-17T22:18:15.369Z,2.20
2018-02-17T22:20:43.006Z,2.20
2018-02-17T22:23:10.566Z,2.10
2018-02-17T22:25:38.157Z,2.00
2018-02-17T22:28:05.773Z,2.00
2018-02-17T22:30:33.351Z,2.00
2018-02-17T22:33:00.964Z,2.00
2018-02-17T22:35:28.559Z,2.00
2018-02-17T22:37:56.166Z,2.00
2018-02-17T22:40:23.784Z,2.00
2018-02-17T22:42:51.341Z,2.00
2018-02-17T22:45:18.977Z,2.00
2018-02-17T22:47:46.591Z,2.00
2018-02-17T22:50:14.918Z,2.00
2018-02-17T22:52:42.523Z,2.10
2018-02-17T22:55:10.877Z,1.90
2018-02-17T22:57:38.440Z,1.90
2018-02-17T23:00:06.794Z,1.90
2018-02-17T23:02:34.431Z,1.80
2018-02-17T23:05:02.003Z,1.80
2018-02-17T23:07:29.604Z,1.70
2018-02-17T23:09:57.165Z,1.60
2018-02-17T23:12:24.783Z,1.60
2018-02-17T23:14:52.370Z,1.60
2018-02-17T23:17:19.938Z,1.60
2018-02-17T23:19:47.534Z,1.50
2018-02-17T23:22:15.861Z,1.50
2018-02-17T23:24:43.487Z,1.50
2018-02-17T23:27:11.835Z,1.40
2018-02-17T23:29:39.406Z,1.40
2018-02-17T23:32:07.005Z,1.40
2018-02-17T23:34:34.594Z,1.40
2018-02-17T23:37:02.180Z,1.30
2018-02-17T23:39:29.738Z,1.30
2018-02-17T23:41:57.337Z,1.30
2018-02-17T23:44:24.905Z,1.30
2018-02-17T23:46:52.500Z,1.30
2018-02-17T23:49:20.069Z,1.30
2018-02-17T23:51:47.677Z,1.30
2018-02-17T23:54:16.008Z,1.10
2018-02-17T23:56:43.618Z,1.10
2018-02-17T23:59:12.038Z,1.00
